createdAt,value
2024-03-05T00:00:00.212Z,10.46
2024-03-05T00:01:03.701Z,10.30
2024-03-05T00:02:06.024Z,10.27
2024-03-05T00:03:09.279Z,10.20
2024-03-05T00:04:11.779Z,10.20
2024-03-05T00:05:15.904Z,10.19
2024-03-05T00:06:18.103Z,10.10
2024-03-05T00:07:21.365Z,10.12
2024-03-05T00:08:23.748Z,10.17
2024-03-05T00:09:26.930Z,10.13
2024-03-05T00:10:30.262Z,10.18
2024-03-05T00:11:33.026Z,10.16
2024-03-05T00:12:36.810Z,10.20
2024-03-05T00:13:40.276Z,10.29
2024-03-05T00:14:42.704Z,10.42
2024-03-05T00:15:46.659Z,10.56
2024-03-05T00:16:49.034Z,10.61
2024-03-05T00:17:53.361Z,10.66
2024-03-05T00:18:55.585Z,10.76
2024-03-05T00:19:57.924Z,10.81
2024-03-05T00:21:01.452Z,10.92
2024-03-05T00:22:04.464Z,10.99
2024-03-05T00:23:07.714Z,11.04
2024-03-05T00:24:10.130Z,11.03
2024-03-05T00:25:12.674Z,11.02
2024-03-05T00:26:19.494Z,11.01
2024-03-05T00:27:21.833Z,11.05
2024-03-05T00:28:26.516Z,11.04
2024-03-05T00:29:28.684Z,11.02
2024-03-05T00:30:32.119Z,10.98
2024-03-05T00:31:35.478Z,10.99
2024-03-05T00:32:39.721Z,10.99
2024-03-05T00:33:42.144Z,11.12
2024-03-05T00:34:45.372Z,11.07
2024-03-05T00:35:48.303Z,11.14
2024-03-05T00:36:51.673Z,11.12
2024-03-05T00:37:53.826Z,11.04
2024-03-05T00:38:57.117Z,11.10
2024-03-05T00:39:59.734Z,11.21
2024-03-05T00:41:03.189Z,11.21
2024-03-05T00:42:05.914Z,11.13
2024-03-05T00:43:09.876Z,11.15
2024-03-05T00:44:13.691Z,11.15
2024-03-05T00:45:18.754Z,11.18
2024-03-05T00:46:22.094Z,11.24
2024-03-05T00:47:25.649Z,11.22
2024-03-05T00:48:29.070Z,11.23
2024-03-05T00:49:32.664Z,11.21
2024-03-05T00:50:36.063Z,11.17
2024-03-05T00:51:38.423Z,11.13
2024-03-05T00:52:42.067Z,11.10
2024-03-05T00:53:44.573Z,11.09
2024-03-05T00:54:47.836Z,10.91
2024-03-05T00:55:50.023Z,10.76
2024-03-05T00:56:52.841Z,10.82
2024-03-05T00:57:56.416Z,10.87
2024-03-05T00:59:03.194Z,10.80
2024-03-05T01:00:09.200Z,10.79
2024-03-05T01:01:11.894Z,10.80
2024-03-05T01:02:15.729Z,10.62
2024-03-05T01:03:18.624Z,10.54
2024-03-05T01:04:21.857Z,10.40
2024-03-05T01:05:25.270Z,10.24
2024-03-05T01:06:28.566Z,10.37
2024-03-05T01:07:30.774Z,10.45
2024-03-05T01:08:34.167Z,10.34
2024-03-05T01:09:36.419Z,10.38
2024-03-05T01:10:40.558Z,10.43
2024-03-05T01:11:42.769Z,10.48
2024-03-05T01:12:46.504Z,10.33
2024-03-05T01:13:49.789Z,10.35
2024-03-05T01:14:53.255Z,10.44
2024-03-05T01:15:58.038Z,10.42
2024-03-05T01:17:01.464Z,10.48
2024-03-05T01:18:04.524Z,10.39
2024-03-05T01:19:07.869Z,10.39
2024-03-05T01:20:17.172Z,10.43
2024-03-05T01:21:21.620Z,10.63
2024-03-05T01:22:23.974Z,10.61
2024-03-05T01:23:27.173Z,10.56
2024-03-05T01:24:29.475Z,10.46
2024-03-05T01:25:32.811Z,10.48
2024-03-05T01:26:35.142Z,10.34
2024-03-05T01:27:39.605Z,10.43
2024-03-05T01:28:42.839Z,10.46
2024-03-05T01:29:48.618Z,10.41
2024-03-05T01:30:50.962Z,10.39
2024-03-05T01:31:57.913Z,10.38
2024-03-05T01:33:02.598Z,10.48
2024-03-05T01:34:04.819Z,10.44
2024-03-05T01:35:11.588Z,10.43
2024-03-05T01:36:16.634Z,10.56
2024-03-05T01:37:19.961Z,10.60
2024-03-05T01:38:22.380Z,10.68
2024-03-05T01:39:27.180Z,10.79
2024-03-05T01:40:29.959Z,10.63
2024-03-05T01:41:33.326Z,10.59
2024-03-05T01:42:35.508Z,10.62
2024-03-05T01:43:39.252Z,10.72
2024-03-05T01:44:41.790Z,10.73
2024-03-05T01:45:44.926Z,10.79
2024-03-05T01:46:47.815Z,10.82
2024-03-05T01:47:53.543Z,10.85
2024-03-05T01:48:55.796Z,10.87
2024-03-05T01:49:59.363Z,10.84
2024-03-05T01:51:02.943Z,10.85
2024-03-05T01:52:06.657Z,10.89
2024-03-05T01:53:12.724Z,10.91
2024-03-05T01:54:17.571Z,10.94
2024-03-05T01:55:20.850Z,10.83
2024-03-05T01:56:24.213Z,10.81
2024-03-05T01:57:27.781Z,10.80
2024-03-05T01:58:31.458Z,10.86
2024-03-05T01:59:34.764Z,10.75
2024-03-05T02:00:38.640Z,10.69
2024-03-05T02:01:40.984Z,10.64
2024-03-05T02:02:45.824Z,10.46
2024-03-05T02:03:50.223Z,10.45
2024-03-05T02:04:54.280Z,10.51
2024-03-05T02:06:00.899Z,10.55
2024-03-05T02:07:04.705Z,10.46
2024-03-05T02:08:07.527Z,10.46
2024-03-05T02:09:13.494Z,10.44
2024-03-05T02:10:15.762Z,10.55
2024-03-05T02:11:19.852Z,10.65
2024-03-05T02:12:22.077Z,10.73
2024-03-05T02:13:26.139Z,10.82
2024-03-05T02:14:29.153Z,10.88
2024-03-05T02:15:31.497Z,10.88
2024-03-05T02:16:34.870Z,10.93
2024-03-05T02:17:37.060Z,10.90
2024-03-05T02:18:40.556Z,10.88
2024-03-05T02:19:48.482Z,10.89
2024-03-05T02:20:51.885Z,10.75
2024-03-05T02:21:59.435Z,10.63
2024-03-05T02:23:03.600Z,10.52
2024-03-05T02:24:06.215Z,10.53
2024-03-05T02:25:10.886Z,10.66
2024-03-05T02:26:13.278Z,10.75
2024-03-05T02:27:23.608Z,10.92
2024-03-05T02:28:29.789Z,10.85
2024-03-05T02:29:35.646Z,10.71
2024-03-05T02:30:38.238Z,10.72
2024-03-05T02:31:41.729Z,10.65
2024-03-05T02:32:44.357Z,10.66
2024-03-05T02:33:49.566Z,10.48
2024-03-05T02:34:55.661Z,10.52
2024-03-05T02:36:00.138Z,10.51
2024-03-05T02:37:04.889Z,10.53
2024-03-05T02:38:08.086Z,10.57
2024-03-05T02:39:11.047Z,10.48
2024-03-05T02:40:15.947Z,10.59
2024-03-05T02:41:18.372Z,10.56
2024-03-05T02:42:20.937Z,10.55
2024-03-05T02:43:24.248Z,10.48
2024-03-05T02:44:28.011Z,10.46
2024-03-05T02:45:31.377Z,10.48
2024-03-05T02:46:33.856Z,10.59
2024-03-05T02:47:37.441Z,10.69
2024-03-05T02:48:40.746Z,10.82
2024-03-05T02:49:42.967Z,10.94
2024-03-05T02:50:48.576Z,10.99
2024-03-05T02:51:51.000Z,11.02
2024-03-05T02:52:55.696Z,11.05
2024-03-05T02:53:57.970Z,11.00
2024-03-05T02:55:00.513Z,11.03
2024-03-05T02:56:06.011Z,10.77
2024-03-05T02:57:08.585Z,10.74
2024-03-05T02:58:12.375Z,10.65
2024-03-05T02:59:14.533Z,10.75
2024-03-05T03:00:21.434Z,10.84
2024-03-05T03:01:24.774Z,10.85
2024-03-05T03:02:28.069Z,10.79
2024-03-05T03:03:30.751Z,10.93
2024-03-05T03:04:34.132Z,11.01
2024-03-05T03:05:37.239Z,10.98
2024-03-05T03:06:40.949Z,10.84
2024-03-05T03:07:44.988Z,10.81
2024-03-05T03:08:49.673Z,10.74
2024-03-05T03:09:51.872Z,10.63
2024-03-05T03:10:56.977Z,10.63
2024-03-05T03:11:59.714Z,10.39
2024-03-05T03:13:03.372Z,10.29
2024-03-05T03:14:05.610Z,10.41
2024-03-05T03:15:09.136Z,10.36
2024-03-05T03:16:12.910Z,10.36
2024-03-05T03:17:15.191Z,10.41
2024-03-05T03:18:19.046Z,10.38
2024-03-05T03:19:21.682Z,10.55
2024-03-05T03:20:24.983Z,10.60
2024-03-05T03:21:27.675Z,10.65
2024-03-05T03:22:31.506Z,10.64
2024-03-05T03:23:34.449Z,10.70
2024-03-05T03:24:39.170Z,10.79
2024-03-05T03:25:42.432Z,10.85
2024-03-05T03:26:46.272Z,10.95
2024-03-05T03:27:48.573Z,11.01
2024-03-05T03:28:53.559Z,10.89
2024-03-05T03:29:56.153Z,10.74
2024-03-05T03:30:59.480Z,10.65
2024-03-05T03:32:02.645Z,10.77
2024-03-05T03:33:06.763Z,10.85
2024-03-05T03:34:09.021Z,10.64
2024-03-05T03:35:15.191Z,10.57
2024-03-05T03:36:24.896Z,10.41
2024-03-05T03:37:28.252Z,10.34
2024-03-05T03:38:30.506Z,10.33
2024-03-05T03:39:33.734Z,10.22
2024-03-05T03:40:37.354Z,10.19
2024-03-05T03:41:41.620Z,10.15
2024-03-05T03:42:43.819Z,10.26
2024-03-05T03:43:47.100Z,10.28
2024-03-05T03:44:49.430Z,10.28
2024-03-05T03:45:53.539Z,10.45
2024-03-05T03:46:55.906Z,10.52
2024-03-05T03:47:59.270Z,10.46
2024-03-05T03:49:01.996Z,10.43
2024-03-05T03:50:05.250Z,10.41
2024-03-05T03:51:08.982Z,10.48
2024-03-05T03:52:11.570Z,10.44
2024-03-05T03:53:14.811Z,10.49
2024-03-05T03:54:16.965Z,10.44
2024-03-05T03:55:20.611Z,10.57
2024-03-05T03:56:24.263Z,10.62
2024-03-05T03:57:27.269Z,10.58
2024-03-05T03:58:31.920Z,10.69
2024-03-05T03:59:34.424Z,10.63
2024-03-05T04:00:37.854Z,10.66
2024-03-05T04:01:40.486Z,10.48
2024-03-05T04:02:45.320Z,10.49
2024-03-05T04:03:48.380Z,10.44
2024-03-05T04:04:51.934Z,10.46
2024-03-05T04:05:54.347Z,10.57
2024-03-05T04:06:57.672Z,10.60
2024-03-05T04:08:04.328Z,10.64
2024-03-05T04:09:09.744Z,10.71
2024-03-05T04:10:12.479Z,10.70
2024-03-05T04:11:16.856Z,10.41
2024-03-05T04:12:20.588Z,10.44
2024-03-05T04:13:24.839Z,10.62
2024-03-05T04:14:27.506Z,10.64
2024-03-05T04:15:31.412Z,10.63
2024-03-05T04:16:33.931Z,10.62
2024-03-05T04:17:38.616Z,10.56
2024-03-05T04:18:40.987Z,10.58
2024-03-05T04:19:44.516Z,10.56
2024-03-05T04:20:46.793Z,10.52
2024-03-05T04:21:50.032Z,10.57
2024-03-05T04:22:53.215Z,10.52
2024-03-05T04:23:55.640Z,10.44
2024-03-05T04:24:59.097Z,10.37
2024-03-05T04:26:08.545Z,10.43
2024-03-05T04:27:13.228Z,10.47
2024-03-05T04:28:17.801Z,10.55
2024-03-05T04:29:21.977Z,10.57
2024-03-05T04:30:24.873Z,10.54
2024-03-05T04:31:37.591Z,10.45
2024-03-05T04:32:56.469Z,10.48
2024-03-05T04:34:04.354Z,10.45
2024-03-05T04:35:12.482Z,10.35
2024-03-05T04:36:16.095Z,10.33
2024-03-05T04:37:19.500Z,10.36
2024-03-05T04:38:22.581Z,10.29
2024-03-05T04:39:25.896Z,10.34
2024-03-05T04:40:28.354Z,10.27
2024-03-05T04:41:31.678Z,10.23
2024-03-05T04:42:34.048Z,10.25
2024-03-05T04:43:40.545Z,10.29
2024-03-05T04:44:44.005Z,10.26
2024-03-05T04:45:46.961Z,10.24
2024-03-05T04:46:50.421Z,10.21
2024-03-05T04:47:53.141Z,10.19
2024-03-05T04:48:56.634Z,10.08
2024-03-05T04:49:59.109Z,10.10
2024-03-05T04:51:02.497Z,10.03
2024-03-05T04:52:05.176Z,10.02
2024-03-05T04:53:08.974Z,9.86
2024-03-05T04:54:12.233Z,9.64
2024-03-05T04:55:15.852Z,9.49
2024-03-05T04:56:18.276Z,9.50
2024-03-05T04:57:21.402Z,9.66
2024-03-05T04:58:23.874Z,9.78
2024-03-05T04:59:28.612Z,9.78
2024-03-05T05:00:30.835Z,9.87
2024-03-05T05:01:34.489Z,9.94
2024-03-05T05:02:36.744Z,9.88
2024-03-05T05:03:40.227Z,9.89
2024-03-05T05:04:42.548Z,9.82
2024-03-05T05:05:45.820Z,9.79
2024-03-05T05:06:48.072Z,9.74
2024-03-05T05:07:51.309Z,9.51
2024-03-05T05:08:53.874Z,9.56
2024-03-05T05:09:57.135Z,9.39
2024-03-05T05:10:59.606Z,9.29
2024-03-05T05:12:03.371Z,9.28
2024-03-05T05:13:05.731Z,9.30
2024-03-05T05:14:09.088Z,9.44
2024-03-05T05:15:13.650Z,9.48
2024-03-05T05:16:17.332Z,9.50
2024-03-05T05:17:19.486Z,9.64
2024-03-05T05:18:22.867Z,9.58
2024-03-05T05:19:26.675Z,9.44
2024-03-05T05:20:29.992Z,9.48
2024-03-05T05:21:32.318Z,9.55
2024-03-05T05:22:35.611Z,9.54
2024-03-05T05:23:37.910Z,9.61
2024-03-05T05:24:41.289Z,9.59
2024-03-05T05:26:47.491Z,9.52
2024-03-05T05:27:50.248Z,9.72
2024-03-05T05:28:53.604Z,9.78
2024-03-05T05:29:58.788Z,9.83
2024-03-05T05:31:25.780Z,9.83
2024-03-05T05:32:28.558Z,9.81
2024-03-05T05:33:33.448Z,9.84
2024-03-05T05:34:35.933Z,9.80
2024-03-05T05:35:39.838Z,9.84
2024-03-05T05:36:43.077Z,9.84
2024-03-05T05:37:45.951Z,9.77
2024-03-05T05:38:50.199Z,9.84
2024-03-05T05:39:52.398Z,9.85
2024-03-05T05:40:54.748Z,9.90
2024-03-05T05:41:58.458Z,10.04
2024-03-05T05:43:00.684Z,10.20
2024-03-05T05:44:04.039Z,10.01
2024-03-05T05:45:10.243Z,10.01
2024-03-05T05:46:16.042Z,10.04
2024-03-05T05:47:18.453Z,10.07
2024-03-05T05:48:29.429Z,10.21
2024-03-05T05:49:33.706Z,10.30
2024-03-05T05:50:37.889Z,10.37
2024-03-05T05:51:40.191Z,10.42
2024-03-05T05:52:43.092Z,10.47
2024-03-05T05:53:46.367Z,10.49
2024-03-05T05:54:49.152Z,10.46
2024-03-05T05:55:52.427Z,10.53
2024-03-05T05:56:54.698Z,10.51
2024-03-05T05:57:58.739Z,10.58
2024-03-05T05:59:01.397Z,10.61
2024-03-05T06:00:09.077Z,10.63
2024-03-05T06:01:15.152Z,10.64
2024-03-05T06:02:21.233Z,10.64
2024-03-05T06:03:24.063Z,10.62
2024-03-05T06:04:28.078Z,10.63
2024-03-05T06:05:33.312Z,10.55
2024-03-05T06:06:37.969Z,10.60
2024-03-05T06:07:41.547Z,10.62
2024-03-05T06:08:43.705Z,10.49
2024-03-05T06:09:46.974Z,10.60
2024-03-05T06:10:50.320Z,10.55
2024-03-05T06:11:53.804Z,10.51
2024-03-05T06:12:55.984Z,10.43
2024-03-05T06:13:59.276Z,10.37
2024-03-05T06:15:01.481Z,10.39
2024-03-05T06:16:08.982Z,10.38
2024-03-05T06:17:11.475Z,10.31
2024-03-05T06:18:17.130Z,10.39
2024-03-05T06:19:19.669Z,10.43
2024-03-05T06:20:22.958Z,10.42
2024-03-05T06:21:25.343Z,10.51
2024-03-05T06:22:34.163Z,10.59
2024-03-05T06:23:38.633Z,10.59
2024-03-05T06:24:42.507Z,10.66
2024-03-05T06:25:44.812Z,10.67
2024-03-05T06:26:48.057Z,10.68
2024-03-05T06:27:50.275Z,10.66
2024-03-05T06:28:53.548Z,10.75
2024-03-05T06:29:56.263Z,10.83
2024-03-05T06:30:59.672Z,10.95
2024-03-05T06:32:02.087Z,10.96
2024-03-05T06:33:10.194Z,11.03
2024-03-05T06:34:15.515Z,11.03
2024-03-05T06:35:23.882Z,11.07
2024-03-05T06:36:26.216Z,11.09
2024-03-05T06:37:29.513Z,11.18
2024-03-05T06:38:32.917Z,11.13
2024-03-05T06:39:43.056Z,11.10
2024-03-05T06:40:45.562Z,11.19
2024-03-05T06:41:53.750Z,11.22
2024-03-05T06:43:05.515Z,11.25
2024-03-05T06:44:12.351Z,11.18
2024-03-05T06:45:16.454Z,11.25
2024-03-05T06:46:20.122Z,11.28
2024-03-05T06:47:28.486Z,11.26
2024-03-05T06:48:34.257Z,11.39
2024-03-05T06:49:40.024Z,11.33
2024-03-05T06:50:44.254Z,11.25
2024-03-05T06:51:54.597Z,11.31
2024-03-05T06:53:15.598Z,11.27
2024-03-05T06:54:36.641Z,11.32
2024-03-05T06:55:57.278Z,11.37
2024-03-05T06:57:00.701Z,11.38
2024-03-05T06:58:05.365Z,11.35
2024-03-05T06:59:11.495Z,11.40
2024-03-05T07:00:16.937Z,11.37
2024-03-05T07:01:21.840Z,11.29
2024-03-05T07:02:27.472Z,11.35
2024-03-05T07:03:30.738Z,11.39
2024-03-05T07:04:32.955Z,11.40
2024-03-05T07:05:37.303Z,11.42
2024-03-05T07:06:40.549Z,11.39
2024-03-05T07:07:43.101Z,11.46
2024-03-05T07:08:48.581Z,11.51
2024-03-05T07:09:51.268Z,11.57
2024-03-05T07:10:55.499Z,11.46
2024-03-05T07:11:58.369Z,11.56
2024-03-05T07:13:02.365Z,11.64
2024-03-05T07:14:04.722Z,11.69
2024-03-05T07:15:10.446Z,11.67
2024-03-05T07:16:15.318Z,11.44
2024-03-05T07:17:18.688Z,11.53
2024-03-05T07:18:20.969Z,11.59
2024-03-05T07:19:24.363Z,11.63
2024-03-05T07:20:28.922Z,11.70
2024-03-05T07:21:34.972Z,11.68
2024-03-05T07:22:37.823Z,11.68
2024-03-05T07:23:42.088Z,11.71
2024-03-05T07:24:44.273Z,11.74
2024-03-05T07:25:47.589Z,11.74
2024-03-05T07:26:56.897Z,11.57
2024-03-05T07:28:10.793Z,11.67
2024-03-05T07:29:13.188Z,11.79
2024-03-05T07:30:17.950Z,11.84
2024-03-05T07:31:20.623Z,11.91
2024-03-05T07:32:24.019Z,11.91
2024-03-05T07:33:26.338Z,11.95
2024-03-05T07:34:30.456Z,12.00
2024-03-05T07:35:32.696Z,12.02
2024-03-05T07:36:41.036Z,11.94
2024-03-05T07:37:46.476Z,12.02
2024-03-05T07:38:49.842Z,12.04
2024-03-05T07:39:52.067Z,12.03
2024-03-05T07:40:55.414Z,12.05
2024-03-05T07:41:58.428Z,12.00
2024-03-05T07:43:03.431Z,11.83
2024-03-05T07:44:06.116Z,11.77
2024-03-05T07:45:08.887Z,11.93
2024-03-05T07:46:12.854Z,11.72
2024-03-05T07:47:15.030Z,11.87
2024-03-05T07:48:19.163Z,11.95
2024-03-05T07:49:21.613Z,11.90
2024-03-05T07:50:24.030Z,11.94
2024-03-05T07:51:29.427Z,11.96
2024-03-05T07:52:38.174Z,11.95
2024-03-05T07:53:42.695Z,11.94
2024-03-05T07:54:45.437Z,11.95
2024-03-05T07:55:48.796Z,12.05
2024-03-05T07:56:51.389Z,12.08
2024-03-05T07:57:54.723Z,12.10
2024-03-05T07:58:58.455Z,12.17
2024-03-05T08:00:00.993Z,12.22
2024-03-05T08:01:04.383Z,12.22
2024-03-05T08:02:06.894Z,12.17
2024-03-05T08:03:11.574Z,12.26
2024-03-05T08:04:13.772Z,12.33
2024-03-05T08:05:19.873Z,12.41
2024-03-05T08:06:22.170Z,12.58
2024-03-05T08:07:25.442Z,12.61
2024-03-05T08:08:30.722Z,12.60
2024-03-05T08:09:36.338Z,12.66
2024-03-05T08:10:38.701Z,12.55
2024-03-05T08:11:42.135Z,12.49
2024-03-05T08:12:45.568Z,12.54
2024-03-05T08:13:49.509Z,12.64
2024-03-05T08:14:51.776Z,12.51
2024-03-05T08:15:56.407Z,12.72
2024-03-05T08:16:59.110Z,12.85
2024-03-05T08:18:02.662Z,12.99
2024-03-05T08:19:05.616Z,13.30
2024-03-05T08:20:10.124Z,14.13
2024-03-05T08:21:12.360Z,14.86
2024-03-05T08:22:15.682Z,15.07
2024-03-05T08:23:17.864Z,14.95
2024-03-05T08:24:21.607Z,14.83
2024-03-05T08:25:25.794Z,14.91
2024-03-05T08:26:29.032Z,14.78
2024-03-05T08:27:32.209Z,14.49
2024-03-05T08:28:34.481Z,14.27
2024-03-05T08:29:40.764Z,14.16
2024-03-05T08:30:43.961Z,13.91
2024-03-05T08:31:47.316Z,13.85
2024-03-05T08:32:50.539Z,13.89
2024-03-05T08:33:53.819Z,13.77
2024-03-05T08:34:56.078Z,13.88
2024-03-05T08:35:59.378Z,13.74
2024-03-05T08:37:01.658Z,13.79
2024-03-05T08:38:05.129Z,13.79
2024-03-05T08:39:19.167Z,14.06
2024-03-05T08:40:24.608Z,14.70
2024-03-05T08:41:26.894Z,15.42
2024-03-05T08:42:30.201Z,16.21
2024-03-05T08:43:32.821Z,16.76
2024-03-05T08:44:36.068Z,17.36
2024-03-05T08:45:38.423Z,17.48
2024-03-05T08:46:41.744Z,17.54
2024-03-05T08:47:46.260Z,17.87
2024-03-05T08:48:49.598Z,18.60
2024-03-05T08:49:52.174Z,18.25
2024-03-05T08:50:55.419Z,18.31
2024-03-05T08:51:59.792Z,18.19
2024-03-05T08:53:04.237Z,18.20
2024-03-05T08:54:10.111Z,19.14
2024-03-05T08:55:15.333Z,19.01
2024-03-05T08:56:19.036Z,19.76
2024-03-05T08:57:21.415Z,20.23
2024-03-05T08:58:24.744Z,20.06
2024-03-05T08:59:27.107Z,19.50
2024-03-05T09:00:41.838Z,20.04
2024-03-05T09:01:45.834Z,20.24
2024-03-05T09:02:49.553Z,20.30
2024-03-05T09:03:53.415Z,20.73
2024-03-05T09:04:56.732Z,20.18
2024-03-05T09:05:59.042Z,19.46
2024-03-05T09:07:02.825Z,19.76
2024-03-05T09:08:06.863Z,19.53
2024-03-05T09:09:12.537Z,19.54
2024-03-05T09:10:16.336Z,19.94
2024-03-05T09:11:21.128Z,20.40
2024-03-05T09:12:23.654Z,20.96
2024-03-05T09:13:26.960Z,20.38
2024-03-05T09:14:29.351Z,20.16
2024-03-05T09:15:32.652Z,20.39
2024-03-05T09:16:34.957Z,20.92
2024-03-05T09:17:38.387Z,21.42
2024-03-05T09:18:40.790Z,21.42
2024-03-05T09:19:45.798Z,21.11
2024-03-05T09:20:48.316Z,21.14
2024-03-05T09:21:51.635Z,20.54
2024-03-05T09:22:53.899Z,20.27
2024-03-05T09:23:57.458Z,19.88
2024-03-05T09:24:59.860Z,19.74
2024-03-05T09:26:03.773Z,19.95
2024-03-05T09:27:07.666Z,20.17
2024-03-05T09:28:10.910Z,20.36
2024-03-05T09:29:16.241Z,20.42
2024-03-05T09:30:20.977Z,20.67
2024-03-05T09:31:23.312Z,20.79
2024-03-05T09:32:26.725Z,21.56
2024-03-05T09:33:30.550Z,21.12
2024-03-05T09:34:34.320Z,21.63
2024-03-05T09:35:36.601Z,21.96
2024-03-05T09:36:40.512Z,22.02
2024-03-05T09:37:45.736Z,22.10
2024-03-05T09:38:49.164Z,22.14
2024-03-05T09:39:52.177Z,21.94
2024-03-05T09:40:56.930Z,22.88
2024-03-05T09:42:00.137Z,23.42
2024-03-05T09:43:06.211Z,23.04
2024-03-05T09:44:09.461Z,23.17
2024-03-05T09:45:17.160Z,22.77
2024-03-05T09:46:22.083Z,22.93
2024-03-05T09:47:27.402Z,22.73
2024-03-05T09:48:30.089Z,22.66
2024-03-05T09:49:33.602Z,22.97
2024-03-05T09:50:37.048Z,22.63
2024-03-05T09:51:42.714Z,22.54
2024-03-05T09:52:47.264Z,22.80
2024-03-05T09:53:53.813Z,22.13
2024-03-05T09:54:56.052Z,22.09
2024-03-05T09:55:59.364Z,21.38
2024-03-05T09:57:05.511Z,21.99
2024-03-05T09:58:12.322Z,22.38
2024-03-05T09:59:17.657Z,22.77
2024-03-05T10:00:23.080Z,22.93
2024-03-05T10:01:25.906Z,23.02
2024-03-05T10:02:30.350Z,22.61
2024-03-05T10:03:33.492Z,22.51
2024-03-05T10:04:41.918Z,22.58
2024-03-05T10:05:44.253Z,23.23
2024-03-05T10:06:47.993Z,22.80
2024-03-05T10:07:50.698Z,23.32
2024-03-05T10:08:55.353Z,23.74
2024-03-05T10:10:08.815Z,22.94
2024-03-05T10:11:15.320Z,23.76
2024-03-05T10:12:17.746Z,24.18
2024-03-05T10:13:23.167Z,24.42
2024-03-05T10:14:25.905Z,24.82
2024-03-05T10:15:28.394Z,24.58
2024-03-05T10:16:31.879Z,24.50
2024-03-05T10:17:42.475Z,24.84
2024-03-05T10:18:47.890Z,24.72
2024-03-05T10:19:50.139Z,25.08
2024-03-05T10:20:52.499Z,25.44
2024-03-05T10:21:55.733Z,25.43
2024-03-05T10:22:59.916Z,24.28
2024-03-05T10:24:04.698Z,24.16
2024-03-05T10:25:14.845Z,24.10
2024-03-05T10:26:25.985Z,24.07
2024-03-05T10:27:28.898Z,24.09
2024-03-05T10:28:33.041Z,23.88
2024-03-05T10:29:39.048Z,23.33
2024-03-05T10:30:44.364Z,22.37
2024-03-05T10:31:48.410Z,23.68
2024-03-05T10:32:54.965Z,24.07
2024-03-05T10:33:59.605Z,23.65
2024-03-05T10:35:02.317Z,22.97
2024-03-05T10:36:05.150Z,22.84
2024-03-05T10:37:08.993Z,23.12
2024-03-05T10:38:15.692Z,23.33
2024-03-05T10:39:19.654Z,23.45
2024-03-05T10:40:22.451Z,24.08
2024-03-05T10:41:31.865Z,25.22
2024-03-05T10:42:43.588Z,25.16
2024-03-05T10:43:50.602Z,24.64
2024-03-05T10:44:54.247Z,24.29
2024-03-05T10:45:56.730Z,23.73
2024-03-05T10:47:00.244Z,24.28
2024-03-05T10:48:03.415Z,24.59
2024-03-05T10:49:08.605Z,25.34
2024-03-05T10:50:14.648Z,25.58
2024-03-05T10:51:19.793Z,25.47
2024-03-05T10:52:26.177Z,25.37
2024-03-05T10:53:29.557Z,25.88
2024-03-05T10:54:33.945Z,26.45
2024-03-05T10:55:38.545Z,25.40
2024-03-05T10:56:44.840Z,25.91
2024-03-05T10:58:02.454Z,25.31
2024-03-05T10:59:22.457Z,24.96
2024-03-05T11:00:26.437Z,25.65
2024-03-05T11:01:33.186Z,25.80
2024-03-05T11:02:35.914Z,24.92
2024-03-05T11:03:41.017Z,25.38
2024-03-05T11:04:44.296Z,25.51
2024-03-05T11:05:51.794Z,26.07
2024-03-05T11:06:57.944Z,26.08
2024-03-05T11:08:03.303Z,26.03
2024-03-05T11:09:05.924Z,26.02
2024-03-05T11:10:13.504Z,26.02
2024-03-05T11:11:20.321Z,25.87
2024-03-05T11:12:24.203Z,25.44
2024-03-05T11:13:28.456Z,25.94
2024-03-05T11:14:34.488Z,26.00
2024-03-05T11:15:37.148Z,25.85
2024-03-05T11:16:40.592Z,26.21
2024-03-05T11:17:43.990Z,25.31
2024-03-05T11:18:49.041Z,25.27
2024-03-05T11:19:51.371Z,24.93
2024-03-05T11:20:55.008Z,25.65
2024-03-05T11:22:00.022Z,26.17
2024-03-05T11:23:05.921Z,25.77
2024-03-05T11:24:08.692Z,25.83
2024-03-05T11:25:32.215Z,25.76
2024-03-05T11:26:35.698Z,25.84
2024-03-05T11:27:38.909Z,25.95
2024-03-05T11:28:41.351Z,26.14
2024-03-05T11:29:46.652Z,26.79
2024-03-05T11:30:48.908Z,26.52
2024-03-05T11:31:54.691Z,27.28
2024-03-05T11:32:56.980Z,26.74
2024-03-05T11:34:11.219Z,27.04
2024-03-05T11:35:14.742Z,26.84
2024-03-05T11:36:23.281Z,26.88
2024-03-05T11:37:25.543Z,27.46
2024-03-05T11:38:28.848Z,27.23
2024-03-05T11:39:31.301Z,27.58
2024-03-05T11:40:38.593Z,26.59
2024-03-05T11:41:43.324Z,26.45
2024-03-05T11:42:47.683Z,26.62
2024-03-05T11:43:49.970Z,27.14
2024-03-05T11:44:54.953Z,26.70
2024-03-05T11:45:58.579Z,26.63
2024-03-05T11:47:00.937Z,26.33
2024-03-05T11:48:06.185Z,26.17
2024-03-05T11:49:09.014Z,26.37
2024-03-05T11:50:12.738Z,26.85
2024-03-05T11:51:14.934Z,26.41
2024-03-05T11:52:20.596Z,25.67
2024-03-05T11:53:24.184Z,25.43
2024-03-05T11:54:27.440Z,25.50
2024-03-05T11:55:29.798Z,25.76
2024-03-05T11:56:33.149Z,24.47
2024-03-05T11:57:36.456Z,23.97
2024-03-05T11:58:39.230Z,24.48
2024-03-05T11:59:42.065Z,24.55
2024-03-05T12:00:48.383Z,24.25
2024-03-05T12:01:50.804Z,24.11
2024-03-05T12:02:54.895Z,24.58
2024-03-05T12:04:02.084Z,24.02
2024-03-05T12:05:07.957Z,24.38
2024-03-05T12:06:11.631Z,24.70
2024-03-05T12:07:15.358Z,24.93
2024-03-05T12:08:23.908Z,25.15
2024-03-05T12:09:27.222Z,24.90
2024-03-05T12:10:32.801Z,24.55
2024-03-05T12:11:37.478Z,23.85
2024-03-05T12:12:39.692Z,24.17
2024-03-05T12:13:47.181Z,24.49
2024-03-05T12:14:55.131Z,24.04
2024-03-05T12:16:11.238Z,24.08
2024-03-05T12:17:15.119Z,23.42
2024-03-05T12:18:18.687Z,23.64
2024-03-05T12:19:21.135Z,23.31
2024-03-05T12:20:25.298Z,22.92
2024-03-05T12:21:29.024Z,22.94
2024-03-05T12:22:33.217Z,23.51
2024-03-05T12:23:41.725Z,23.02
2024-03-05T12:24:47.810Z,22.51
2024-03-05T12:25:50.228Z,22.44
2024-03-05T12:26:55.994Z,23.30
2024-03-05T12:28:01.405Z,23.76
2024-03-05T12:29:04.716Z,24.17
2024-03-05T12:30:08.484Z,24.00
2024-03-05T12:31:13.744Z,23.85
2024-03-05T12:32:19.767Z,24.25
2024-03-05T12:33:24.211Z,22.96
2024-03-05T12:34:28.548Z,23.09
2024-03-05T12:35:32.185Z,23.76
2024-03-05T12:36:34.435Z,23.84
2024-03-05T12:37:39.471Z,24.58
2024-03-05T12:38:42.066Z,25.01
2024-03-05T12:39:45.393Z,23.59
2024-03-05T12:40:47.864Z,23.75
2024-03-05T12:42:01.614Z,24.25
2024-03-05T12:43:08.167Z,23.54
2024-03-05T12:44:11.513Z,23.84
2024-03-05T12:45:16.909Z,23.59
2024-03-05T12:46:21.810Z,23.48
2024-03-05T12:47:24.075Z,23.43
2024-03-05T12:48:26.817Z,24.00
2024-03-05T12:49:31.121Z,23.56
2024-03-05T12:50:34.017Z,23.58
2024-03-05T12:51:37.432Z,23.72
2024-03-05T12:52:39.657Z,23.61
2024-03-05T12:53:43.385Z,23.11
2024-03-05T12:54:46.881Z,22.23
2024-03-05T12:55:50.763Z,21.73
2024-03-05T12:56:53.021Z,21.33
2024-03-05T12:58:06.427Z,21.41
2024-03-05T12:59:08.678Z,21.29
2024-03-05T13:00:14.309Z,21.25
2024-03-05T13:01:17.126Z,21.37
2024-03-05T13:02:21.934Z,21.37
2024-03-05T13:03:24.335Z,21.33
2024-03-05T13:04:28.151Z,21.60
2024-03-05T13:05:30.457Z,21.65
2024-03-05T13:06:34.173Z,20.99
2024-03-05T13:07:36.677Z,20.67
2024-03-05T13:08:41.020Z,20.03
2024-03-05T13:09:43.328Z,20.11
2024-03-05T13:10:47.880Z,20.08
2024-03-05T13:11:51.022Z,20.28
2024-03-05T13:12:53.599Z,20.18
2024-03-05T13:13:59.404Z,20.36
2024-03-05T13:15:01.614Z,19.89
2024-03-05T13:16:06.604Z,20.12
2024-03-05T13:17:08.814Z,20.50
2024-03-05T13:18:13.558Z,20.61
2024-03-05T13:19:15.844Z,20.73
2024-03-05T13:20:20.682Z,20.76
2024-03-05T13:21:22.837Z,21.30
2024-03-05T13:22:26.103Z,20.90
2024-03-05T13:23:30.970Z,20.88
2024-03-05T13:24:35.471Z,20.63
2024-03-05T13:25:38.007Z,21.08
2024-03-05T13:26:41.804Z,21.15
2024-03-05T13:27:45.085Z,21.12
2024-03-05T13:28:48.815Z,21.50
2024-03-05T13:30:01.336Z,21.33
2024-03-05T13:31:08.681Z,21.65
2024-03-05T13:32:12.283Z,21.59
2024-03-05T13:33:16.091Z,21.58
2024-03-05T13:34:23.640Z,21.14
2024-03-05T13:35:26.087Z,21.28
2024-03-05T13:36:28.726Z,21.43
2024-03-05T13:37:35.382Z,21.06
2024-03-05T13:38:37.620Z,21.21
2024-03-05T13:39:45.188Z,21.03
2024-03-05T13:40:47.555Z,20.94
2024-03-05T13:41:54.533Z,20.73
2024-03-05T13:42:57.341Z,20.53
2024-03-05T13:44:00.742Z,20.75
2024-03-05T13:45:04.840Z,20.29
2024-03-05T13:46:08.188Z,20.15
2024-03-05T13:47:10.416Z,20.07
2024-03-05T13:48:13.766Z,20.13
2024-03-05T13:49:21.168Z,20.19